Portada
METAR-TAF:

METAR-TAF

Aeroports :

Quakertown Airport

Quakertown, Pennsilvània, Estats Units d'Amèrica

latitud: 40-26-06N, longitud: 075-22-54W, altitud: 160 m

Observació

L'informe es va fer fa 9 minuts, a les 22:55 UTC
Vent 8 kt del Oest amb ràfegues de 16 kt, variant entre Oest/Sud-Oest i Nord-Oest
Temperatura 6°C
Humitat 49%
Pressió 1013 hPa
Visibilitat: 16.1 km
Cel clar

METAR: KUKT 222255Z AUTO 28008G16KT 250V310 10SM CLR 06/M04 A2990 RMK A01

Hora: 18:04 (23:04 UTC)


TAF: manca

Observacions i pronòstics meteorològics de més de 4000 aeroports (METAR i TAF).

Les estacions disponibles són els punts grocs i vermells al mapa.

Posi el ratolí al punt desitjat per veure el nom de l'estació.

Feu clic per veure les observacions i els pronòstics meteorològics.

Per canviar el mapa: feu clic els botons verds amb una creu de color negre per apropar; al botó verd amb un guió per allunyar la imatge; o en les fletxes verdes per a mapes adjacents.


METAR-TAF: